Time;durP1;ratioP1;P1;durP2;ratioP2;P2;SDS_P1;SDS_P2;PMS_P1;PMS_P2;Temp;Humidity;BMP_temperature;BMP_pressure;BME280_temperature;BME280_humidity;BME280_pressure;Samples;Min_cycle;Max_cycle;Signal;HPM_P1;HPM_P2
2021/09/14 00:01:14;;;;;;;2.80;2.60;;;10.80;89.80;;;;;;4972075;28;20270;-89
2021/09/14 00:03:40;;;;;;;5.40;2.73;;;10.80;89.90;;;;;;4972882;28;20175;-89
2021/09/14 00:06:07;;;;;;;3.83;3.43;;;10.80;90.00;;;;;;4971657;28;20185;-89
2021/09/14 00:08:33;;;;;;;3.53;2.97;;;10.70;90.20;;;;;;4972638;28;20179;-89
2021/09/14 00:11:00;;;;;;;3.70;3.40;;;10.80;90.30;;;;;;4971549;28;20646;-89
2021/09/14 00:13:25;;;;;;;4.73;3.00;;;10.80;90.30;;;;;;4971931;28;20207;-89
2021/09/14 00:15:51;;;;;;;4.30;2.90;;;10.80;90.20;;;;;;4971649;28;20179;-89
2021/09/14 00:18:17;;;;;;;3.43;2.80;;;10.80;90.00;;;;;;4971960;28;20275;-89
2021/09/14 00:20:43;;;;;;;3.07;2.77;;;10.80;89.90;;;;;;4971497;28;20593;-89
2021/09/14 00:23:09;;;;;;;4.03;2.37;;;10.90;89.60;;;;;;4972526;28;20220;-89
2021/09/14 00:25:35;;;;;;;3.17;2.13;;;10.80;89.60;;;;;;4971442;28;20185;-89
2021/09/14 00:28:01;;;;;;;3.93;3.20;;;10.80;89.50;;;;;;4971450;28;20179;-89
2021/09/14 00:30:27;;;;;;;2.97;2.57;;;10.80;89.30;;;;;;4971468;28;20240;-89
2021/09/14 00:32:53;;;;;;;12.10;3.30;;;10.80;89.20;;;;;;4971223;28;20234;-89
2021/09/14 00:35:19;;;;;;;8.20;3.07;;;10.90;89.20;;;;;;4971209;28;20708;-89
2021/09/14 00:37:44;;;;;;;3.00;2.53;;;10.90;89.00;;;;;;4971408;28;20228;-89
2021/09/14 00:40:11;;;;;;;4.07;2.50;;;10.90;88.90;;;;;;4972363;28;20175;-89
2021/09/14 00:42:37;;;;;;;6.57;2.80;;;10.80;88.60;;;;;;4972709;28;20626;-89
2021/09/14 00:45:04;;;;;;;3.73;2.60;;;10.80;88.60;;;;;;4972451;28;20716;-89
2021/09/14 00:47:30;;;;;;;3.60;2.53;;;10.80;88.70;;;;;;4970945;28;20186;-89
2021/09/14 00:49:57;;;;;;;6.47;2.53;;;10.80;88.60;;;;;;4971099;28;20240;-89
2021/09/14 00:52:22;;;;;;;2.87;2.23;;;10.80;88.50;;;;;;4972293;28;20260;-89
2021/09/14 00:54:48;;;;;;;2.90;2.10;;;10.80;88.50;;;;;;4970903;28;20651;-89
2021/09/14 00:57:13;;;;;;;5.27;2.53;;;10.80;88.30;;;;;;4970970;28;20179;-89
2021/09/14 00:59:39;;;;;;;4.07;2.47;;;10.80;88.10;;;;;;4970581;28;20550;-89
2021/09/14 01:02:05;;;;;;;2.37;1.97;;;10.70;87.80;;;;;;4970854;28;20209;-89
2021/09/14 01:04:31;;;;;;;6.73;2.10;;;10.80;87.60;;;;;;4971371;28;20189;-89
2021/09/14 01:06:57;;;;;;;5.40;2.50;;;10.70;87.30;;;;;;4971043;28;20190;-89
2021/09/14 01:09:23;;;;;;;2.80;2.53;;;10.80;87.10;;;;;;4972823;28;20551;-90
2021/09/14 01:11:52;;;;;;;6.47;2.50;;;10.70;86.90;;;;;;4970796;28;20587;-90
2021/09/14 01:14:17;;;;;;;12.77;2.53;;;10.70;86.70;;;;;;4971002;28;20207;-89
2021/09/14 01:16:43;;;;;;;3.07;2.20;;;10.70;86.60;;;;;;4970994;28;20182;-90
2021/09/14 01:19:10;;;;;;;2.47;2.13;;;10.70;86.50;;;;;;4971109;28;20228;-89
2021/09/14 01:21:37;;;;;;;3.83;2.13;;;10.70;86.40;;;;;;4972098;28;20285;-90
2021/09/14 01:24:03;;;;;;;2.50;2.10;;;10.70;86.20;;;;;;4971495;28;20179;-89
2021/09/14 01:26:30;;;;;;;4.83;1.93;;;10.60;86.00;;;;;;4970990;28;20179;-89
2021/09/14 01:28:56;;;;;;;5.03;2.17;;;10.60;85.80;;;;;;4970600;28;20667;-89
2021/09/14 01:31:22;;;;;;;7.80;2.40;;;10.60;85.70;;;;;;4970663;28;20203;-89
2021/09/14 01:33:52;;;;;;;2.00;1.80;;;10.60;85.50;;;;;;4970891;28;20206;-89
2021/09/14 01:36:18;;;;;;;3.00;2.37;;;10.50;85.40;;;;;;4972172;28;20232;-89
2021/09/14 01:38:44;;;;;;;6.13;2.10;;;10.50;85.40;;;;;;4970696;28;20175;-89
2021/09/14 01:41:11;;;;;;;3.57;2.30;;;10.50;85.30;;;;;;4970535;28;20312;-90
2021/09/14 01:43:39;;;;;;;2.90;2.20;;;10.50;85.30;;;;;;4970737;28;20232;-89
2021/09/14 01:46:06;;;;;;;2.17;1.97;;;10.50;85.40;;;;;;4970705;28;20269;-89
2021/09/14 01:48:31;;;;;;;3.27;2.20;;;10.40;85.40;;;;;;4970997;28;20183;-88
2021/09/14 01:50:57;;;;;;;15.30;5.00;;;10.40;85.40;;;;;;4971513;28;20221;-89
2021/09/14 01:53:24;;;;;;;3.70;2.63;;;10.40;85.40;;;;;;4970940;28;20214;-89
2021/09/14 01:55:51;;;;;;;3.20;2.53;;;10.40;85.40;;;;;;4970581;28;20183;-90
2021/09/14 01:58:17;;;;;;;5.57;2.60;;;10.40;85.30;;;;;;4970755;28;20178;-89
2021/09/14 02:00:58;;;;;;;2.57;2.37;;;10.30;85.30;;;;;;4970362;28;20232;-89
2021/09/14 02:23:40;;;;;;;10.03;2.63;;;10.30;85.80;;;;;;4972329;28;20178;-89
2021/09/14 02:39:03;;;;;;;6.70;4.40;;;10.10;85.80;;;;;;4975179;28;20194;-89
2021/09/14 03:00:48;;;;;;;11.13;6.50;;;10.10;86.30;;;;;;4974509;28;20194;-89
2021/09/14 03:03:14;;;;;;;11.27;6.00;;;10.10;86.40;;;;;;4972721;28;20203;-89
2021/09/14 03:05:40;;;;;;;9.57;6.00;;;10.10;86.40;;;;;;4973935;28;20178;-89
2021/09/14 03:08:05;;;;;;;11.30;5.53;;;10.10;86.50;;;;;;4972536;28;20649;-89
2021/09/14 03:10:31;;;;;;;8.83;5.57;;;10.10;86.50;;;;;;4972589;28;20182;-89
2021/09/14 03:12:57;;;;;;;7.40;5.33;;;10.20;86.50;;;;;;4973701;28;20574;-90
2021/09/14 03:15:22;;;;;;;7.43;4.77;;;10.20;86.50;;;;;;4972549;28;20183;-89
2021/09/14 03:17:48;;;;;;;9.00;5.20;;;10.10;86.50;;;;;;4972897;28;20214;-89
2021/09/14 03:20:14;;;;;;;8.73;4.83;;;10.10;86.50;;;;;;4973825;28;20171;-89
2021/09/14 03:22:40;;;;;;;8.83;5.10;;;10.10;86.70;;;;;;4971880;28;20201;-89
2021/09/14 03:25:07;;;;;;;7.27;4.00;;;10.00;87.00;;;;;;4973770;28;20246;-89
2021/09/14 03:27:34;;;;;;;10.07;3.70;;;10.00;87.00;;;;;;4972448;28;20202;-89
2021/09/14 03:30:00;;;;;;;4.57;3.50;;;10.00;87.00;;;;;;4972169;28;20183;-89
2021/09/14 03:32:26;;;;;;;8.13;3.77;;;10.00;87.10;;;;;;4973345;28;20216;-89
2021/09/14 03:34:52;;;;;;;7.17;4.47;;;10.00;87.10;;;;;;4973296;28;20171;-89
2021/09/14 03:37:18;;;;;;;9.60;4.50;;;9.90;87.10;;;;;;4972874;28;20179;-89
2021/09/14 03:39:43;;;;;;;12.47;4.27;;;10.00;87.00;;;;;;4972120;28;20265;-89
2021/09/14 03:42:09;;;;;;;9.77;3.67;;;10.00;87.00;;;;;;4971940;28;20191;-89
2021/09/14 03:44:34;;;;;;;6.47;2.80;;;10.00;87.10;;;;;;4973169;28;20171;-89
2021/09/14 03:47:00;;;;;;;2.70;2.13;;;10.00;87.30;;;;;;4971821;28;20181;-89
2021/09/14 03:49:26;;;;;;;4.63;1.80;;;10.00;87.30;;;;;;4971884;28;20190;-89
2021/09/14 03:51:51;;;;;;;4.23;2.10;;;10.00;87.60;;;;;;4971899;28;20245;-89
2021/09/14 03:54:17;;;;;;;2.53;2.10;;;10.00;87.70;;;;;;4971855;28;20282;-89
2021/09/14 03:56:43;;;;;;;3.63;1.70;;;10.00;87.60;;;;;;4973008;28;20175;-89
2021/09/14 03:59:09;;;;;;;8.63;1.87;;;9.90;87.70;;;;;;4973333;28;20171;-89
2021/09/14 04:01:37;;;;;;;3.43;1.43;;;9.90;87.80;;;;;;4973432;28;20542;-89
2021/09/14 04:04:34;;;;;;;1.77;1.40;;;9.90;87.80;;;;;;4971698;28;20620;-89
2021/09/14 04:07:12;;;;;;;3.70;1.90;;;9.90;87.70;;;;;;4972530;28;20654;-89
2021/09/14 04:09:37;;;;;;;3.70;2.00;;;9.80;87.50;;;;;;4971614;28;20174;-89
2021/09/14 04:12:03;;;;;;;4.53;1.63;;;9.80;87.40;;;;;;4971453;28;20198;-89
2021/09/14 04:14:30;;;;;;;3.13;2.00;;;9.80;87.20;;;;;;4971716;28;20209;-89
2021/09/14 04:16:56;;;;;;;2.63;1.90;;;9.80;87.10;;;;;;4971531;28;20178;-89
2021/09/14 04:19:22;;;;;;;3.43;2.07;;;9.80;87.00;;;;;;4971588;28;20286;-89
2021/09/14 04:21:48;;;;;;;7.57;2.10;;;9.80;86.90;;;;;;4972588;28;20239;-89
2021/09/14 04:24:14;;;;;;;2.47;2.10;;;9.80;86.90;;;;;;4971585;28;20255;-89
2021/09/14 04:26:39;;;;;;;10.03;2.80;;;9.80;86.70;;;;;;4971323;28;20599;-89
2021/09/14 04:29:06;;;;;;;4.90;2.87;;;9.80;86.60;;;;;;4971222;28;20175;-89
2021/09/14 04:31:31;;;;;;;7.93;3.07;;;9.80;86.50;;;;;;4972507;28;20701;-89
2021/09/14 04:33:58;;;;;;;11.93;3.80;;;9.80;86.40;;;;;;4970839;28;20238;-89
2021/09/14 04:36:23;;;;;;;9.07;5.43;;;9.80;86.40;;;;;;4971267;28;20179;-89
2021/09/14 04:38:49;;;;;;;10.57;4.23;;;9.80;86.70;;;;;;4971182;28;20794;-89
2021/09/14 04:41:15;;;;;;;9.10;3.40;;;9.90;87.40;;;;;;4972655;28;20668;-89
2021/09/14 04:43:41;;;;;;;3.30;2.60;;;9.80;87.70;;;;;;4971137;28;20205;-89
2021/09/14 04:46:07;;;;;;;9.60;3.90;;;9.80;88.20;;;;;;4971475;28;20681;-89
2021/09/14 04:48:33;;;;;;;8.20;5.20;;;9.80;88.40;;;;;;4972070;28;20197;-89
2021/09/14 04:50:58;;;;;;;11.33;5.03;;;9.80;88.90;;;;;;4971242;28;20190;-89
2021/09/14 04:53:24;;;;;;;9.57;4.07;;;9.80;89.50;;;;;;4970685;28;20242;-89
2021/09/14 04:55:51;;;;;;;4.00;2.87;;;9.70;89.80;;;;;;4971286;28;20203;-89
2021/09/14 04:58:17;;;;;;;6.13;3.20;;;9.70;90.30;;;;;;4971476;28;20639;-89
2021/09/14 05:00:43;;;;;;;8.13;3.00;;;9.70;90.40;;;;;;4971646;28;20654;-90
2021/09/14 05:03:10;;;;;;;6.00;2.43;;;9.70;90.70;;;;;;4970771;28;20237;-89
2021/09/14 05:05:36;;;;;;;7.47;2.90;;;9.60;90.90;;;;;;4972397;28;20630;-89
2021/09/14 05:08:02;;;;;;;6.97;2.60;;;9.60;91.00;;;;;;4971145;28;20182;-89
2021/09/14 05:10:28;;;;;;;7.27;3.23;;;9.60;91.20;;;;;;4970913;28;20266;-89
2021/09/14 05:12:54;;;;;;;9.63;3.47;;;9.50;91.20;;;;;;4971211;28;20217;-89
2021/09/14 05:15:19;;;;;;;5.47;2.87;;;9.60;91.30;;;;;;4971420;28;20187;-90
2021/09/14 05:17:45;;;;;;;5.77;2.80;;;9.70;91.30;;;;;;4972420;28;20175;-89
2021/09/14 05:20:13;;;;;;;4.33;2.60;;;9.70;91.40;;;;;;4972254;28;20203;-89
2021/09/14 05:22:39;;;;;;;8.87;3.40;;;9.70;91.50;;;;;;4972602;28;20198;-89
2021/09/14 05:25:06;;;;;;;4.77;2.90;;;9.70;91.60;;;;;;4972633;28;20179;-89
2021/09/14 05:27:31;;;;;;;7.57;3.33;;;9.80;91.60;;;;;;4971351;28;20179;-89
2021/09/14 05:29:57;;;;;;;4.20;3.27;;;9.80;91.60;;;;;;4971090;28;20186;-89
2021/09/14 05:32:23;;;;;;;8.83;3.20;;;9.80;91.50;;;;;;4971073;28;20264;-89
2021/09/14 05:34:49;;;;;;;8.90;3.37;;;9.90;91.50;;;;;;4971977;28;20163;-89
2021/09/14 05:37:16;;;;;;;4.93;3.30;;;9.90;91.40;;;;;;4970727;28;20182;-89
2021/09/14 05:39:42;;;;;;;6.30;3.80;;;9.90;91.40;;;;;;4971948;28;20167;-89
2021/09/14 05:42:08;;;;;;;7.40;3.80;;;10.00;91.40;;;;;;4970720;28;20217;-89
2021/09/14 05:44:35;;;;;;;6.93;3.47;;;10.00;91.40;;;;;;4970557;28;20190;-89
2021/09/14 05:47:01;;;;;;;6.67;3.30;;;10.10;91.30;;;;;;4974410;28;20202;-89
2021/09/14 05:49:27;;;;;;;4.40;3.20;;;10.10;91.30;;;;;;4974052;28;20182;-89
2021/09/14 05:51:53;;;;;;;9.37;3.90;;;10.00;91.30;;;;;;4974265;28;20218;-89
2021/09/14 05:54:19;;;;;;;7.70;3.60;;;10.10;91.40;;;;;;4974302;28;20203;-89
2021/09/14 05:56:44;;;;;;;7.40;3.63;;;10.20;91.40;;;;;;4975142;28;20259;-89
2021/09/14 05:59:10;;;;;;;8.10;3.90;;;10.20;91.40;;;;;;4973656;28;20179;-89
2021/09/14 06:01:36;;;;;;;14.37;4.00;;;10.20;91.40;;;;;;4973581;28;20206;-89
2021/09/14 06:04:02;;;;;;;7.87;5.00;;;10.20;91.50;;;;;;4973612;28;20186;-89
2021/09/14 06:06:27;;;;;;;12.53;3.90;;;10.30;91.60;;;;;;4973683;28;20190;-89
2021/09/14 06:08:53;;;;;;;5.60;4.10;;;10.40;91.70;;;;;;4973593;28;20190;-88
2021/09/14 06:11:19;;;;;;;10.83;4.10;;;10.50;91.80;;;;;;4974291;28;20183;-88
2021/09/14 06:13:45;;;;;;;19.67;4.40;;;10.40;91.80;;;;;;4973694;28;20680;-89
2021/09/14 06:16:11;;;;;;;5.83;4.53;;;10.50;91.80;;;;;;4973733;28;20186;-88
2021/09/14 06:18:37;;;;;;;8.67;4.67;;;10.40;91.80;;;;;;4974962;28;20175;-88
2021/09/14 06:21:03;;;;;;;11.67;5.33;;;10.40;91.90;;;;;;4974615;28;20205;-89
2021/09/14 06:23:29;;;;;;;6.80;5.37;;;10.50;92.10;;;;;;4974824;28;20560;-89
2021/09/14 06:25:55;;;;;;;8.63;5.43;;;10.50;92.40;;;;;;4973590;28;20216;-89
2021/09/14 06:28:20;;;;;;;9.87;6.50;;;10.70;92.50;;;;;;4973544;28;20190;-88
2021/09/14 06:30:46;;;;;;;9.77;6.40;;;10.80;92.60;;;;;;4974683;28;20665;-88
2021/09/14 06:33:12;;;;;;;18.70;7.33;;;10.90;92.70;;;;;;4974679;28;20210;-88
2021/09/14 06:35:37;;;;;;;11.73;7.57;;;11.00;92.80;;;;;;4973243;28;20190;-88
2021/09/14 06:38:04;;;;;;;13.90;8.30;;;11.20;93.00;;;;;;4974261;28;20225;-88
2021/09/14 06:40:31;;;;;;;22.77;8.33;;;11.30;93.20;;;;;;4973094;28;20658;-88
2021/09/14 06:42:56;;;;;;;17.97;8.70;;;11.40;93.30;;;;;;4972973;28;20203;-88
2021/09/14 06:45:22;;;;;;;13.57;8.03;;;11.50;93.30;;;;;;4972941;28;20179;-88
2021/09/14 06:47:49;;;;;;;24.80;9.77;;;11.60;93.30;;;;;;4974422;28;20182;-88
2021/09/14 06:50:20;;;;;;;20.27;10.20;;;11.80;93.40;;;;;;4974070;28;20171;-88
2021/09/14 06:52:48;;;;;;;13.63;9.77;;;11.90;93.50;;;;;;4974454;28;20206;-89
2021/09/14 06:55:14;;;;;;;12.47;9.47;;;12.00;93.60;;;;;;4974170;28;20178;-88
2021/09/14 06:57:40;;;;;;;21.20;10.03;;;12.20;93.70;;;;;;4972111;28;20171;-88
2021/09/14 07:00:06;;;;;;;20.67;10.20;;;12.30;93.70;;;;;;4974106;28;20171;-88
2021/09/14 07:02:32;;;;;;;14.83;9.87;;;12.50;93.70;;;;;;4972671;28;20229;-88
2021/09/14 07:04:58;;;;;;;15.83;9.70;;;12.60;93.70;;;;;;4972604;28;20592;-88
2021/09/14 07:07:23;;;;;;;22.30;9.93;;;12.70;93.80;;;;;;4972472;28;20183;-88
2021/09/14 07:09:49;;;;;;;23.30;10.33;;;12.80;93.60;;;;;;4972371;28;20545;-88
2021/09/14 07:12:15;;;;;;;22.90;9.50;;;12.90;93.60;;;;;;4972224;28;20245;-88
2021/09/14 07:14:41;;;;;;;23.53;10.03;;;13.00;93.50;;;;;;4972555;28;20269;-88
2021/09/14 07:17:09;;;;;;;25.17;11.13;;;13.10;93.30;;;;;;4972298;28;20178;-88
2021/09/14 07:19:34;;;;;;;21.40;10.17;;;13.30;93.40;;;;;;4972511;28;20186;-88
2021/09/14 07:22:00;;;;;;;16.13;9.10;;;13.40;93.30;;;;;;4972254;28;20577;-89
2021/09/14 07:24:26;;;;;;;16.70;9.67;;;13.50;93.10;;;;;;4972389;28;20206;-88
2021/09/14 07:26:51;;;;;;;22.80;9.40;;;13.50;92.70;;;;;;4973446;28;20179;-89
2021/09/14 07:29:17;;;;;;;15.77;8.73;;;13.70;92.70;;;;;;4973320;28;20186;-89
2021/09/14 07:31:44;;;;;;;21.20;9.80;;;13.80;92.50;;;;;;4971925;28;20259;-88
2021/09/14 07:34:10;;;;;;;16.67;9.40;;;13.90;92.40;;;;;;4972017;28;20305;-89
2021/09/14 07:36:36;;;;;;;17.63;10.00;;;14.00;92.00;;;;;;4972734;28;20581;-88
2021/09/14 07:39:02;;;;;;;18.13;11.07;;;14.10;91.90;;;;;;4971884;28;20638;-89
2021/09/14 07:41:27;;;;;;;18.07;9.87;;;14.20;91.50;;;;;;4972021;28;20573;-89
2021/09/14 07:43:53;;;;;;;19.10;11.20;;;14.20;91.00;;;;;;4973597;28;20261;-89
2021/09/14 07:46:19;;;;;;;22.67;13.17;;;14.30;90.80;;;;;;4972097;28;20217;-89
2021/09/14 07:48:44;;;;;;;25.93;16.33;;;14.30;91.00;;;;;;4971745;28;20278;-89
2021/09/14 07:51:10;;;;;;;25.03;17.30;;;14.50;91.00;;;;;;4971590;28;20654;-89
2021/09/14 07:53:35;;;;;;;30.33;20.80;;;14.50;90.80;;;;;;4972875;28;20252;-89
2021/09/14 07:56:01;;;;;;;36.03;23.10;;;14.60;90.80;;;;;;4971834;28;20581;-89
2021/09/14 07:58:27;;;;;;;33.30;23.33;;;14.60;90.80;;;;;;4971847;28;20642;-89
2021/09/14 08:00:53;;;;;;;32.50;22.70;;;14.80;90.90;;;;;;4971385;28;20262;-89
2021/09/14 08:03:18;;;;;;;27.60;21.33;;;14.80;90.60;;;;;;4971678;28;20237;-89
2021/09/14 08:05:44;;;;;;;28.83;20.03;;;15.00;90.50;;;;;;4971737;28;20270;-89
2021/09/14 08:08:10;;;;;;;27.10;18.80;;;15.10;90.40;;;;;;4972554;28;20179;-89
2021/09/14 08:10:36;;;;;;;33.58;20.65;;;15.10;89.60;;;;;;4970219;28;20183;-89
2021/09/14 08:13:02;;;;;;;31.85;19.63;;;15.20;90.20;;;;;;4971094;28;20602;-89
2021/09/14 08:15:28;;;;;;;39.90;19.15;;;15.30;89.60;;;;;;4971373;28;20275;-89
2021/09/14 08:17:54;;;;;;;24.00;19.42;;;15.30;89.60;;;;;;4971284;28;20285;-90
2021/09/14 08:20:19;;;;;;;27.65;17.20;;;15.40;89.80;;;;;;4971186;28;20178;-90
2021/09/14 08:22:45;;;;;;;24.90;16.38;;;15.70;90.10;;;;;;4972715;28;20316;-89
2021/09/14 08:25:11;;;;;;;25.73;15.63;;;15.70;89.90;;;;;;4971189;28;20178;-89
2021/09/14 08:27:37;;;;;;;20.80;14.23;;;15.80;89.20;;;;;;4971081;28;20274;-89
2021/09/14 08:30:04;;;;;;;21.15;15.27;;;15.90;88.90;;;;;;4971585;28;20378;-89
2021/09/14 08:32:30;;;;;;;22.75;11.98;;;16.00;88.60;;;;;;4970862;28;20596;-89
2021/09/14 08:34:55;;;;;;;18.58;12.85;;;16.20;88.10;;;;;;4972148;28;20171;-89
2021/09/14 08:37:21;;;;;;;15.75;9.38;;;16.30;88.00;;;;;;4971424;28;20205;-89
2021/09/14 08:39:47;;;;;;;12.77;10.20;;;16.30;87.50;;;;;;4971720;28;20202;-89
2021/09/14 08:42:13;;;;;;;13.75;8.35;;;16.40;87.20;;;;;;4970885;28;20666;-89
2021/09/14 08:44:42;;;;;;;12.40;7.85;;;16.50;87.20;;;;;;4970800;28;20190;-89
2021/09/14 08:47:08;;;;;;;14.90;8.68;;;16.60;86.80;;;;;;4971948;28;20171;-89
2021/09/14 08:49:35;;;;;;;14.57;8.32;;;16.60;86.20;;;;;;4971581;28;20497;-88
2021/09/14 08:52:01;;;;;;;21.10;12.93;;;16.70;85.50;;;;;;4972172;28;20746;-89
2021/09/14 08:54:27;;;;;;;17.25;8.75;;;16.90;85.90;;;;;;4971755;28;20273;-89
2021/09/14 08:56:53;;;;;;;9.82;7.20;;;16.90;84.90;;;;;;4970714;28;20185;-89
2021/09/14 08:59:30;;;;;;;21.42;12.27;;;16.90;84.50;;;;;;4970869;28;20178;-89
2021/09/14 09:02:00;;;;;;;13.15;6.82;;;17.00;84.40;;;;;;4971630;28;20260;-89
2021/09/14 09:04:26;;;;;;;10.57;6.95;;;17.10;84.50;;;;;;4971833;28;20210;-89
2021/09/14 09:06:52;;;;;;;10.23;7.28;;;17.30;83.60;;;;;;4970727;28;20179;-89
2021/09/14 09:09:21;;;;;;;13.20;6.70;;;17.30;83.10;;;;;;4970459;28;20174;-89
2021/09/14 09:12:06;;;;;;;11.15;5.10;;;17.40;83.40;;;;;;4970355;28;20209;-88
2021/09/14 09:14:34;;;;;;;11.00;6.30;;;17.50;83.50;;;;;;4970556;28;20198;-89
2021/09/14 09:17:26;;;;;;;7.68;5.13;;;17.50;83.30;;;;;;4970624;28;20179;-88
2021/09/14 09:20:06;;;;;;;10.77;5.68;;;17.60;82.90;;;;;;4973108;28;20232;-88
2021/09/14 09:22:32;;;;;;;7.57;5.15;;;17.70;82.20;;;;;;4973745;28;20194;-88
2021/09/14 09:24:58;;;;;;;13.15;6.20;;;17.80;81.80;;;;;;4973876;28;20716;-88
2021/09/14 09:27:25;;;;;;;8.15;4.85;;;17.80;81.20;;;;;;4974155;28;20178;-88
2021/09/14 09:29:58;;;;;;;8.43;5.15;;;17.90;80.50;;;;;;4974645;28;20213;-88
2021/09/14 09:32:24;;;;;;;11.15;5.63;;;18.00;80.30;;;;;;4973771;28;20199;-88
2021/09/14 09:34:57;;;;;;;8.15;5.80;;;18.10;79.80;;;;;;4974037;28;20616;-88
2021/09/14 09:37:23;;;;;;;9.80;5.45;;;18.20;79.90;;;;;;4975439;28;20630;-88
2021/09/14 09:39:49;;;;;;;12.48;5.38;;;18.20;80.70;;;;;;4975199;28;20183;-89
2021/09/14 09:42:16;;;;;;;10.43;5.32;;;18.30;79.60;;;;;;4974261;28;20194;-88
2021/09/14 09:44:56;;;;;;;9.70;4.75;;;18.40;78.10;;;;;;4973838;28;20202;-88
2021/09/14 09:47:22;;;;;;;11.38;5.10;;;18.40;77.90;;;;;;4974013;28;20177;-88
2021/09/14 09:49:48;;;;;;;10.02;4.55;;;18.30;76.80;;;;;;4973960;28;20179;-88
2021/09/14 09:52:14;;;;;;;10.10;4.85;;;18.50;79.30;;;;;;4973768;28;20271;-89
2021/09/14 09:54:40;;;;;;;10.85;4.57;;;18.70;79.20;;;;;;4974765;28;20289;-88
2021/09/14 09:57:09;;;;;;;9.10;4.63;;;18.90;78.30;;;;;;4973526;28;20751;-88
2021/09/14 09:59:34;;;;;;;5.45;4.20;;;18.90;77.80;;;;;;4973521;28;20186;-88
2021/09/14 10:02:21;;;;;;;7.70;3.90;;;19.00;77.40;;;;;;4974669;28;20194;-88
2021/09/14 10:04:53;;;;;;;7.32;4.32;;;19.20;77.70;;;;;;4974036;28;20181;-88
2021/09/14 10:07:19;;;;;;;8.23;4.13;;;19.00;76.00;;;;;;4973585;28;20635;-88
2021/09/14 10:09:50;;;;;;;8.55;4.38;;;19.00;76.50;;;;;;4974579;28;20590;-89
2021/09/14 10:12:29;;;;;;;11.10;5.18;;;19.20;75.60;;;;;;4974774;28;20701;-89
2021/09/14 10:15:11;;;;;;;9.02;4.80;;;19.30;76.30;;;;;;4974616;28;20556;-89
2021/09/14 10:17:51;;;;;;;11.82;5.13;;;19.60;77.40;;;;;;4974841;28;20159;-89
2021/09/14 10:20:19;;;;;;;7.95;4.63;;;19.70;74.20;;;;;;4973266;28;20175;-89
2021/09/14 10:22:57;;;;;;;10.40;4.78;;;19.60;73.40;;;;;;4974635;28;20259;-89
2021/09/14 10:25:23;;;;;;;4.35;3.85;;;19.50;74.00;;;;;;4974315;28;20169;-89
2021/09/14 10:27:48;;;;;;;6.22;4.35;;;19.30;74.30;;;;;;4973035;28;20533;-88
2021/09/14 10:30:22;;;;;;;12.32;4.40;;;19.30;72.90;;;;;;4973112;28;20218;-89
2021/09/14 10:32:47;;;;;;;6.78;4.38;;;19.50;75.80;;;;;;4971955;28;20275;-89
2021/09/14 10:35:25;;;;;;;9.18;4.70;;;19.70;72.40;;;;;;4974141;28;20674;-89
2021/09/14 10:37:52;;;;;;;8.65;3.85;;;19.90;72.50;;;;;;4972940;28;20167;-89
2021/09/14 10:40:22;;;;;;;7.32;4.10;;;20.00;71.90;;;;;;4973171;28;20171;-89
2021/09/14 10:42:48;;;;;;;5.13;3.13;;;20.00;69.40;;;;;;4972838;28;20257;-89
2021/09/14 10:45:20;;;;;;;9.05;4.30;;;20.00;70.30;;;;;;4972869;28;20183;-89
2021/09/14 10:47:48;;;;;;;6.82;3.80;;;20.00;70.50;;;;;;4972702;28;20187;-89
2021/09/14 10:50:30;;;;;;;6.88;3.53;;;20.20;71.10;;;;;;4972813;28;20619;-89
2021/09/14 10:53:02;;;;;;;7.68;3.60;;;20.40;69.80;;;;;;4972855;28;20207;-89
2021/09/14 10:55:33;;;;;;;7.30;4.30;;;20.50;69.40;;;;;;4972735;28;20209;-88
2021/09/14 10:58:00;;;;;;;4.30;3.15;;;20.50;69.90;;;;;;4972770;28;20178;-89
2021/09/14 11:00:29;;;;;;;7.68;3.30;;;20.60;70.00;;;;;;4973751;28;20195;-89
2021/09/14 11:03:00;;;;;;;6.03;3.50;;;20.80;69.00;;;;;;4972395;28;20191;-89
2021/09/14 11:05:30;;;;;;;6.70;4.38;;;20.80;67.60;;;;;;4972443;28;20602;-89
2021/09/14 11:08:00;;;;;;;9.13;4.20;;;20.80;66.40;;;;;;4972856;28;20228;-89
2021/09/14 11:10:35;;;;;;;8.02;3.13;;;20.70;66.50;;;;;;4972298;28;20189;-89
2021/09/14 11:13:01;;;;;;;5.47;3.03;;;21.00;68.50;;;;;;4973754;28;20241;-89
2021/09/14 11:15:27;;;;;;;6.18;2.92;;;21.30;66.20;;;;;;4972463;28;20182;-89
2021/09/14 11:17:52;;;;;;;7.22;3.40;;;21.30;61.70;;;;;;4972570;28;20175;-89
2021/09/14 11:20:20;;;;;;;4.95;3.30;;;21.30;63.10;;;;;;4972360;28;20175;-89
2021/09/14 11:22:48;;;;;;;7.90;3.92;;;21.50;64.60;;;;;;4973698;28;20617;-87
2021/09/14 11:25:20;;;;;;;5.57;3.42;;;21.60;64.30;;;;;;4972176;28;20187;-87
2021/09/14 11:28:03;;;;;;;7.55;4.40;;;21.50;64.30;;;;;;4973303;28;20159;-87
2021/09/14 11:30:31;;;;;;;5.32;3.65;;;21.20;64.50;;;;;;4972011;28;20171;-87
2021/09/14 11:32:59;;;;;;;7.22;3.40;;;20.80;64.80;;;;;;4973120;28;20222;-87
2021/09/14 11:35:28;;;;;;;5.75;3.35;;;21.10;66.40;;;;;;4972553;28;20182;-87
2021/09/14 11:38:07;;;;;;;7.72;3.50;;;21.30;65.30;;;;;;4971897;28;20179;-87
2021/09/14 11:40:42;;;;;;;8.25;3.78;;;21.60;65.60;;;;;;4971893;28;20220;-87
2021/09/14 11:43:08;;;;;;;6.10;3.45;;;21.50;64.20;;;;;;4972586;28;20198;-87
2021/09/14 11:45:34;;;;;;;5.43;3.15;;;21.70;62.40;;;;;;4971762;28;20182;-88
2021/09/14 11:48:01;;;;;;;7.93;4.05;;;21.80;62.90;;;;;;4971717;28;20224;-88
2021/09/14 11:50:29;;;;;;;7.35;3.70;;;21.90;62.20;;;;;;4971617;28;20179;-88
2021/09/14 11:53:13;;;;;;;5.40;3.17;;;22.00;63.40;;;;;;4971620;28;20272;-88
2021/09/14 11:55:50;;;;;;;5.30;2.95;;;22.20;63.40;;;;;;4972823;28;20498;-87
2021/09/14 11:58:31;;;;;;;8.07;3.55;;;22.10;62.80;;;;;;4971869;28;20198;-87
2021/09/14 12:01:02;;;;;;;7.05;3.47;;;21.70;62.30;;;;;;4971469;28;20171;-87
2021/09/14 12:03:57;;;;;;;5.13;3.70;;;21.50;65.20;;;;;;4972819;28;20253;-88
2021/09/14 12:06:23;;;;;;;8.48;4.03;;;21.50;65.70;;;;;;4970966;28;20201;-89
2021/09/14 12:08:49;;;;;;;4.75;3.42;;;21.50;63.80;;;;;;4973074;28;20174;-89
2021/09/14 12:11:27;;;;;;;7.80;3.60;;;21.50;64.90;;;;;;4971508;28;20178;-89
2021/09/14 12:13:58;;;;;;;5.13;3.60;;;21.50;63.70;;;;;;4972849;28;20709;-91
2021/09/14 12:16:32;;;;;;;7.13;3.42;;;21.50;62.70;;;;;;4972686;28;20179;-91
2021/09/14 12:18:58;;;;;;;5.47;3.63;;;21.70;64.10;;;;;;4972202;28;20261;-91
2021/09/14 12:21:25;;;;;;;4.63;3.35;;;21.90;62.80;;;;;;4972100;28;20596;-91
2021/09/14 12:23:52;;;;;;;6.25;3.63;;;21.90;62.70;;;;;;4972547;28;20262;-89
2021/09/14 12:26:23;;;;;;;4.40;3.35;;;21.90;63.60;;;;;;4972695;28;20206;-89
2021/09/14 12:28:51;;;;;;;8.13;3.97;;;22.00;61.90;;;;;;4971350;28;20182;-89
2021/09/14 12:31:17;;;;;;;5.80;3.30;;;22.10;63.30;;;;;;4972372;28;20238;-89
2021/09/14 12:33:44;;;;;;;5.20;4.15;;;22.20;62.10;;;;;;4971170;28;20306;-89
2021/09/14 12:36:10;;;;;;;5.18;3.72;;;22.30;61.30;;;;;;4972441;28;20199;-89
2021/09/14 12:38:37;;;;;;;9.93;4.38;;;22.40;62.60;;;;;;4972250;28;20175;-89
2021/09/14 12:41:03;;;;;;;6.38;3.40;;;22.40;63.00;;;;;;4971581;28;20179;-89
2021/09/14 12:43:29;;;;;;;6.22;3.85;;;22.60;62.10;;;;;;4972383;28;20203;-89
2021/09/14 12:45:55;;;;;;;5.88;3.50;;;22.60;60.80;;;;;;4971127;28;20600;-89
2021/09/14 12:48:20;;;;;;;7.10;3.67;;;22.30;60.60;;;;;;4972254;28;20218;-91
2021/09/14 12:50:46;;;;;;;5.78;3.80;;;22.10;62.20;;;;;;4970882;28;20186;-91
2021/09/14 12:53:12;;;;;;;4.95;3.70;;;22.00;61.70;;;;;;4970847;28;20305;-91
2021/09/14 12:55:38;;;;;;;6.57;3.88;;;22.10;62.40;;;;;;4971475;28;20175;-91
2021/09/14 12:58:06;;;;;;;6.78;3.63;;;22.00;62.90;;;;;;4970997;28;20182;-91
2021/09/14 13:00:33;;;;;;;5.35;4.13;;;22.10;62.80;;;;;;4970829;28;20170;-91
2021/09/14 13:02:59;;;;;;;8.32;4.45;;;22.00;63.60;;;;;;4971060;28;20200;-91
2021/09/14 13:05:26;;;;;;;6.88;4.40;;;22.10;64.00;;;;;;4971605;28;20224;-91
2021/09/14 13:07:52;;;;;;;9.68;3.72;;;22.10;63.50;;;;;;4972120;28;20654;-91
2021/09/14 13:10:18;;;;;;;5.97;3.80;;;21.70;63.30;;;;;;4972098;28;20178;-91
2021/09/14 13:12:48;;;;;;;7.20;3.60;;;21.70;63.90;;;;;;4972077;28;20195;-91
2021/09/14 13:17:59;;;;;;;6.60;3.92;;;22.00;65.50;;;;;;4972498;28;20574;-89
2021/09/14 13:20:27;;;;;;;5.63;3.72;;;22.20;62.30;;;;;;4970860;28;20174;-90
2021/09/14 13:22:53;;;;;;;7.78;3.40;;;22.30;61.70;;;;;;4970919;28;20245;-90
2021/09/14 13:25:19;;;;;;;5.10;3.70;;;22.30;62.70;;;;;;4970743;28;20178;-90
2021/09/14 13:27:45;;;;;;;6.40;3.90;;;22.20;62.20;;;;;;4970864;28;20254;-90
2021/09/14 13:30:11;;;;;;;4.88;3.65;;;22.20;61.80;;;;;;4970492;28;20658;-89
2021/09/14 13:32:37;;;;;;;4.60;3.05;;;22.50;61.80;;;;;;4970514;28;20315;-89
2021/09/14 13:35:04;;;;;;;6.72;3.92;;;23.00;60.70;;;;;;4969644;28;20171;-89
2021/09/14 13:37:29;;;;;;;6.43;4.03;;;23.10;60.60;;;;;;4970161;28;20198;-89
2021/09/14 13:39:55;;;;;;;6.18;3.67;;;22.80;60.40;;;;;;4970163;28;20639;-89